Aeroporto :
LOGIN :

Iscrizione | Disclaimer

   EN    FR    IT 

 










Sommario :    VFR   VFR Marginale   IFR   IFR Intensivo   IFR Molto Intensivo
Visibilità : 
Base nubi : 
>= 8 km
>= 3000ft
5 / 8 km
1000 / 3000 ft
1500m / 5 km
500 / 1000 ft
800 / 1500m
200 / 500 ft
< 800m
< 200 ft
Simboli :   Temporali  Nebbia  Neve Forte  Precipitazioni Forti  Vento > 20 kt
SIGMETs :   Varie  Temporali  Ghiacco  Turbolenza  Onda orograficha  Ceneri Vulcaniche






- Altitudine del aeroporto : 1325 ft
- Codice IATA : EBU


LFMH - St-Etienne Boutheon

ULTIMO METAR :
  • 290730Z AUTO VRB01KT 9999 FEW022 OVC038 05/04 Q1017

METARs OBSOLETI :
  • 290700Z AUTO VRB01KT 9999 OVC023 05/04 Q1017
  • 290630Z AUTO 00000KT 9999 BKN028 OVC035 05/04 Q1017
  • 290600Z AUTO 00000KT 9999 BKN027 OVC050 05/04 Q1017
  • 290530Z AUTO VRB02KT 9999 -RA FEW024 OVC035 05/04 Q1016
  • 290500Z AUTO VRB02KT 9999 -RA BKN025 OVC031 05/04 Q1016

Previsioni scadute.
ATIS : +33 4 77 36 17 51



MetMap, La meteo Aeronautica in un colpo d'occhio ! - Copyright ORBIFLY Dicembre 2007 - Disclaimer

ORBIFLY MET'MAP TEAM :

Programmazione e sviluppo : Alexandra Zaïnal
Concezione : Baudouin d'Aumeries
Supporto tecnico e logistico : Manuel Goepfert
Aiuto : Marc-Olivier Méhu
Aiuto per la traduzione : Arnaldo La Scala




FONTI E CREDITI :

   NOAA